Shaw Air Force Base
KSSC : now visible

Airfield :











YOU CAN JOIN US ON...

 
LOGIN :

Register | Disclaimer

   EN    FR    IT 

 









Legend :    VFR   Marginal VFR   IFR   Intensive IFR   Very Intensive IFR
Visi :
Ceiling :
>= 8 km
>= 3000ft
5 to 8 km
1000 to 3000 ft
1500m to 5 km
500 to 1000 ft
800 to 1500m
200 to 500 ft
< 800m
< 200 ft
Symbols :   Thunderstorms  Fog  Heavy snow  Heavy precipitations  Wind > 20 kt






- Airport Elevation : 241 ft


KSSC - Shaw Air Force Base

CURRENT METAR :
  • 170242Z AUTO 04003KT 8SM -RA OVC004 08/07 A3013 RMK AO2 RAE08DZB08E18RAB42 CIG 004V011 OVC V BKN CIG 003 RWY22 SLPNO $

EXPIRED METARs :
  • 170218Z AUTO 05003KT 8SM BKN014 OVC021 08/07 A3012 RMK AO2 RAE08DZB08E18 CIG 003 RWY22 SLPNO $
  • 162356Z 33004KT 5SM BR BKN004 OVC019 08/08 A3012 RMK AO2A SLPNO P0003 60029 T00760076 10084 20075 LAST

Expired Forecast.



MET'MAP, your aeronautical weather chart ! - Copyright ORBIFLY December 2007 - Disclaimer

ORBIFLY MET'MAP TEAM :

Programming & Development : Alexandra Zaïnal
Concept & original design : Baudouin d'Aumeries
Assistance for programming : Marc-Olivier Méhu
Technical & hardware support : Manuel Goepfert

Contact : metmap@orbifly.com




SOURCES & CREDITS :

   NOAA       Earth
Advisory